sensor_id;sensor_type;location;lat;lon;timestamp;P1;durP1;ratioP1;P2;durP2;ratioP2
17852;SDS011;9052;53.494;14.376;2023-12-28T00:02:06;6.87;;;3.87;;
17852;SDS011;9052;53.494;14.376;2023-12-28T00:04:32;10.10;;;5.23;;
17852;SDS011;9052;53.494;14.376;2023-12-28T00:07:00;27.57;;;6.10;;
17852;SDS011;9052;53.494;14.376;2023-12-28T00:09:28;13.90;;;5.67;;
17852;SDS011;9052;53.494;14.376;2023-12-28T00:11:55;11.63;;;4.53;;
17852;SDS011;9052;53.494;14.376;2023-12-28T00:14:22;21.57;;;4.33;;
17852;SDS011;9052;53.494;14.376;2023-12-28T00:16:48;13.67;;;5.10;;
17852;SDS011;9052;53.494;14.376;2023-12-28T00:19:17;14.73;;;5.93;;
17852;SDS011;9052;53.494;14.376;2023-12-28T00:21:45;5.40;;;3.53;;
17852;SDS011;9052;53.494;14.376;2023-12-28T00:24:11;7.97;;;4.80;;
17852;SDS011;9052;53.494;14.376;2023-12-28T00:26:38;12.97;;;4.53;;
17852;SDS011;9052;53.494;14.376;2023-12-28T00:29:05;13.17;;;4.50;;
17852;SDS011;9052;53.494;14.376;2023-12-28T00:31:32;20.67;;;4.70;;
17852;SDS011;9052;53.494;14.376;2023-12-28T00:33:59;7.73;;;4.13;;
17852;SDS011;9052;53.494;14.376;2023-12-28T00:36:28;6.57;;;4.57;;
17852;SDS011;9052;53.494;14.376;2023-12-28T00:38:54;9.93;;;4.20;;
17852;SDS011;9052;53.494;14.376;2023-12-28T00:41:21;8.73;;;4.63;;
17852;SDS011;9052;53.494;14.376;2023-12-28T00:43:48;20.90;;;6.10;;
17852;SDS011;9052;53.494;14.376;2023-12-28T00:46:15;9.40;;;3.97;;
17852;SDS011;9052;53.494;14.376;2023-12-28T00:48:42;11.00;;;4.00;;
17852;SDS011;9052;53.494;14.376;2023-12-28T00:51:09;9.40;;;4.50;;
17852;SDS011;9052;53.494;14.376;2023-12-28T00:53:37;6.20;;;4.10;;
17852;SDS011;9052;53.494;14.376;2023-12-28T00:56:04;24.30;;;5.23;;
17852;SDS011;9052;53.494;14.376;2023-12-28T00:58:31;11.10;;;4.73;;
17852;SDS011;9052;53.494;14.376;2023-12-28T01:00:58;9.93;;;4.20;;
17852;SDS011;9052;53.494;14.376;2023-12-28T01:03:25;13.53;;;4.73;;
17852;SDS011;9052;53.494;14.376;2023-12-28T01:05:52;15.47;;;6.07;;
17852;SDS011;9052;53.494;14.376;2023-12-28T01:08:19;5.10;;;3.90;;
17852;SDS011;9052;53.494;14.376;2023-12-28T01:10:48;13.13;;;5.10;;
17852;SDS011;9052;53.494;14.376;2023-12-28T01:13:15;7.60;;;3.80;;
17852;SDS011;9052;53.494;14.376;2023-12-28T01:15:42;9.83;;;4.80;;
17852;SDS011;9052;53.494;14.376;2023-12-28T01:18:09;16.70;;;4.60;;
17852;SDS011;9052;53.494;14.376;2023-12-28T01:20:36;7.73;;;4.50;;
17852;SDS011;9052;53.494;14.376;2023-12-28T01:23:03;11.93;;;4.33;;
17852;SDS011;9052;53.494;14.376;2023-12-28T01:25:30;7.70;;;3.70;;
17852;SDS011;9052;53.494;14.376;2023-12-28T01:27:58;10.13;;;5.50;;
17852;SDS011;9052;53.494;14.376;2023-12-28T01:30:25;15.87;;;3.80;;
17852;SDS011;9052;53.494;14.376;2023-12-28T01:32:52;7.63;;;3.93;;
17852;SDS011;9052;53.494;14.376;2023-12-28T01:35:20;9.90;;;4.37;;
17852;SDS011;9052;53.494;14.376;2023-12-28T01:37:47;14.27;;;4.27;;
17852;SDS011;9052;53.494;14.376;2023-12-28T01:40:15;6.20;;;3.87;;
17852;SDS011;9052;53.494;14.376;2023-12-28T01:42:42;11.97;;;4.87;;
17852;SDS011;9052;53.494;14.376;2023-12-28T01:45:10;9.70;;;4.43;;
17852;SDS011;9052;53.494;14.376;2023-12-28T01:47:37;12.50;;;3.60;;
17852;SDS011;9052;53.494;14.376;2023-12-28T01:50:05;10.43;;;3.77;;
17852;SDS011;9052;53.494;14.376;2023-12-28T01:52:33;14.60;;;4.27;;
17852;SDS011;9052;53.494;14.376;2023-12-28T01:55:00;8.40;;;5.00;;
17852;SDS011;9052;53.494;14.376;2023-12-28T01:57:27;8.90;;;4.20;;
17852;SDS011;9052;53.494;14.376;2023-12-28T01:59:54;6.70;;;3.87;;
17852;SDS011;9052;53.494;14.376;2023-12-28T02:02:22;4.47;;;3.70;;
17852;SDS011;9052;53.494;14.376;2023-12-28T02:04:50;18.47;;;4.43;;
17852;SDS011;9052;53.494;14.376;2023-12-28T02:07:17;4.17;;;3.77;;
17852;SDS011;9052;53.494;14.376;2023-12-28T02:09:45;6.03;;;4.27;;
17852;SDS011;9052;53.494;14.376;2023-12-28T02:12:11;6.87;;;4.30;;
17852;SDS011;9052;53.494;14.376;2023-12-28T02:14:38;8.67;;;3.57;;
17852;SDS011;9052;53.494;14.376;2023-12-28T02:17:06;7.47;;;4.23;;
17852;SDS011;9052;53.494;14.376;2023-12-28T02:19:41;7.00;;;4.07;;
17852;SDS011;9052;53.494;14.376;2023-12-28T02:22:11;4.70;;;3.97;;
17852;SDS011;9052;53.494;14.376;2023-12-28T02:24:59;4.67;;;3.43;;
17852;SDS011;9052;53.494;14.376;2023-12-28T02:27:27;7.20;;;4.60;;
17852;SDS011;9052;53.494;14.376;2023-12-28T02:29:55;7.80;;;4.33;;
17852;SDS011;9052;53.494;14.376;2023-12-28T02:32:24;7.83;;;3.23;;
17852;SDS011;9052;53.494;14.376;2023-12-28T02:34:59;7.63;;;3.40;;
17852;SDS011;9052;53.494;14.376;2023-12-28T02:37:31;5.37;;;3.03;;
17852;SDS011;9052;53.494;14.376;2023-12-28T02:40:01;3.90;;;3.50;;
17852;SDS011;9052;53.494;14.376;2023-12-28T02:42:28;5.23;;;2.70;;
17852;SDS011;9052;53.494;14.376;2023-12-28T02:44:55;9.67;;;3.47;;
17852;SDS011;9052;53.494;14.376;2023-12-28T02:47:22;3.40;;;3.10;;
17852;SDS011;9052;53.494;14.376;2023-12-28T02:49:49;7.30;;;2.90;;
17852;SDS011;9052;53.494;14.376;2023-12-28T02:52:16;7.20;;;2.80;;
17852;SDS011;9052;53.494;14.376;2023-12-28T02:54:43;5.00;;;3.90;;
17852;SDS011;9052;53.494;14.376;2023-12-28T02:57:11;7.23;;;2.70;;
17852;SDS011;9052;53.494;14.376;2023-12-28T02:59:43;7.90;;;3.30;;
17852;SDS011;9052;53.494;14.376;2023-12-28T03:02:10;5.93;;;3.20;;
17852;SDS011;9052;53.494;14.376;2023-12-28T03:04:37;5.03;;;3.40;;
17852;SDS011;9052;53.494;14.376;2023-12-28T03:07:04;7.93;;;3.17;;
17852;SDS011;9052;53.494;14.376;2023-12-28T03:09:32;15.50;;;3.03;;
17852;SDS011;9052;53.494;14.376;2023-12-28T03:11:59;7.40;;;3.10;;
17852;SDS011;9052;53.494;14.376;2023-12-28T03:14:28;4.67;;;3.13;;
17852;SDS011;9052;53.494;14.376;2023-12-28T03:16:54;12.00;;;2.93;;
17852;SDS011;9052;53.494;14.376;2023-12-28T03:19:21;4.17;;;2.50;;
17852;SDS011;9052;53.494;14.376;2023-12-28T03:21:48;16.30;;;3.50;;
17852;SDS011;9052;53.494;14.376;2023-12-28T03:24:15;3.30;;;2.70;;
17852;SDS011;9052;53.494;14.376;2023-12-28T03:26:42;6.77;;;3.77;;
17852;SDS011;9052;53.494;14.376;2023-12-28T03:29:09;5.37;;;2.57;;
17852;SDS011;9052;53.494;14.376;2023-12-28T03:31:40;4.20;;;2.53;;
17852;SDS011;9052;53.494;14.376;2023-12-28T03:34:07;2.67;;;2.47;;
17852;SDS011;9052;53.494;14.376;2023-12-28T03:36:33;6.60;;;2.90;;
17852;SDS011;9052;53.494;14.376;2023-12-28T03:39:00;4.30;;;2.70;;
17852;SDS011;9052;53.494;14.376;2023-12-28T03:41:28;7.80;;;2.00;;
17852;SDS011;9052;53.494;14.376;2023-12-28T03:43:56;2.10;;;2.00;;
17852;SDS011;9052;53.494;14.376;2023-12-28T03:46:22;4.93;;;2.17;;
17852;SDS011;9052;53.494;14.376;2023-12-28T03:48:51;2.50;;;2.20;;
17852;SDS011;9052;53.494;14.376;2023-12-28T03:51:18;3.63;;;1.93;;
17852;SDS011;9052;53.494;14.376;2023-12-28T03:53:45;4.60;;;1.93;;
17852;SDS011;9052;53.494;14.376;2023-12-28T03:56:21;1.77;;;1.67;;
17852;SDS011;9052;53.494;14.376;2023-12-28T03:58:49;7.13;;;1.83;;
17852;SDS011;9052;53.494;14.376;2023-12-28T04:01:17;6.30;;;2.10;;
17852;SDS011;9052;53.494;14.376;2023-12-28T04:03:44;1.83;;;1.73;;
17852;SDS011;9052;53.494;14.376;2023-12-28T04:06:13;3.40;;;2.33;;
17852;SDS011;9052;53.494;14.376;2023-12-28T04:08:40;4.50;;;1.90;;
17852;SDS011;9052;53.494;14.376;2023-12-28T04:11:08;2.97;;;2.40;;
17852;SDS011;9052;53.494;14.376;2023-12-28T04:13:35;3.53;;;2.47;;
17852;SDS011;9052;53.494;14.376;2023-12-28T04:16:02;7.53;;;2.43;;
17852;SDS011;9052;53.494;14.376;2023-12-28T04:18:29;4.60;;;2.50;;
17852;SDS011;9052;53.494;14.376;2023-12-28T04:20:56;2.77;;;2.23;;
17852;SDS011;9052;53.494;14.376;2023-12-28T04:23:25;2.57;;;2.07;;
17852;SDS011;9052;53.494;14.376;2023-12-28T04:25:52;4.83;;;2.83;;
17852;SDS011;9052;53.494;14.376;2023-12-28T04:28:18;2.77;;;2.00;;
17852;SDS011;9052;53.494;14.376;2023-12-28T04:30:45;2.50;;;2.07;;
17852;SDS011;9052;53.494;14.376;2023-12-28T04:33:12;6.93;;;1.93;;
17852;SDS011;9052;53.494;14.376;2023-12-28T04:35:39;2.63;;;2.10;;
17852;SDS011;9052;53.494;14.376;2023-12-28T04:38:08;3.23;;;2.10;;
17852;SDS011;9052;53.494;14.376;2023-12-28T04:40:36;2.00;;;1.50;;
17852;SDS011;9052;53.494;14.376;2023-12-28T04:43:03;4.97;;;1.90;;
17852;SDS011;9052;53.494;14.376;2023-12-28T04:45:30;2.33;;;2.13;;
17852;SDS011;9052;53.494;14.376;2023-12-28T04:47:57;1.60;;;1.50;;
17852;SDS011;9052;53.494;14.376;2023-12-28T04:50:24;2.97;;;2.60;;
17852;SDS011;9052;53.494;14.376;2023-12-28T04:52:51;8.00;;;1.90;;
17852;SDS011;9052;53.494;14.376;2023-12-28T04:55:18;1.67;;;1.40;;
17852;SDS011;9052;53.494;14.376;2023-12-28T04:57:47;5.53;;;2.13;;
17852;SDS011;9052;53.494;14.376;2023-12-28T05:00:14;3.37;;;2.20;;
17852;SDS011;9052;53.494;14.376;2023-12-28T05:02:41;2.33;;;1.40;;
17852;SDS011;9052;53.494;14.376;2023-12-28T05:05:11;3.50;;;2.10;;
17852;SDS011;9052;53.494;14.376;2023-12-28T05:07:38;3.70;;;1.53;;
17852;SDS011;9052;53.494;14.376;2023-12-28T05:10:05;2.43;;;2.13;;
17852;SDS011;9052;53.494;14.376;2023-12-28T05:12:32;5.73;;;1.27;;
17852;SDS011;9052;53.494;14.376;2023-12-28T05:15:01;10.20;;;1.60;;
17852;SDS011;9052;53.494;14.376;2023-12-28T05:17:28;2.33;;;1.30;;
17852;SDS011;9052;53.494;14.376;2023-12-28T05:19:55;2.00;;;1.53;;
17852;SDS011;9052;53.494;14.376;2023-12-28T05:22:22;6.57;;;1.83;;
17852;SDS011;9052;53.494;14.376;2023-12-28T05:24:49;2.23;;;2.03;;
17852;SDS011;9052;53.494;14.376;2023-12-28T05:27:16;2.10;;;1.47;;
17852;SDS011;9052;53.494;14.376;2023-12-28T05:29:43;8.00;;;1.63;;
17852;SDS011;9052;53.494;14.376;2023-12-28T05:32:11;1.10;;;1.00;;
17852;SDS011;9052;53.494;14.376;2023-12-28T05:34:38;1.83;;;1.50;;
17852;SDS011;9052;53.494;14.376;2023-12-28T05:37:05;3.43;;;1.47;;
17852;SDS011;9052;53.494;14.376;2023-12-28T05:39:32;3.37;;;1.93;;
17852;SDS011;9052;53.494;14.376;2023-12-28T05:41:59;2.47;;;1.20;;
17852;SDS011;9052;53.494;14.376;2023-12-28T05:44:26;3.70;;;1.87;;
17852;SDS011;9052;53.494;14.376;2023-12-28T05:46:53;2.70;;;1.20;;
17852;SDS011;9052;53.494;14.376;2023-12-28T05:49:21;2.30;;;2.13;;
17852;SDS011;9052;53.494;14.376;2023-12-28T05:51:50;2.80;;;1.40;;
17852;SDS011;9052;53.494;14.376;2023-12-28T05:54:17;2.83;;;1.80;;
17852;SDS011;9052;53.494;14.376;2023-12-28T05:56:44;1.60;;;1.50;;
17852;SDS011;9052;53.494;14.376;2023-12-28T05:59:11;4.60;;;1.90;;
17852;SDS011;9052;53.494;14.376;2023-12-28T06:01:41;2.40;;;1.40;;
17852;SDS011;9052;53.494;14.376;2023-12-28T06:04:08;0.87;;;0.87;;
17852;SDS011;9052;53.494;14.376;2023-12-28T06:06:37;1.23;;;1.13;;
17852;SDS011;9052;53.494;14.376;2023-12-28T06:09:04;6.13;;;1.67;;
17852;SDS011;9052;53.494;14.376;2023-12-28T06:11:31;3.93;;;1.50;;
17852;SDS011;9052;53.494;14.376;2023-12-28T06:13:58;2.40;;;1.00;;
17852;SDS011;9052;53.494;14.376;2023-12-28T06:16:25;1.17;;;1.17;;
17852;SDS011;9052;53.494;14.376;2023-12-28T06:18:52;1.83;;;1.70;;
17852;SDS011;9052;53.494;14.376;2023-12-28T06:21:20;1.67;;;1.07;;
17852;SDS011;9052;53.494;14.376;2023-12-28T06:23:48;1.90;;;1.30;;
17852;SDS011;9052;53.494;14.376;2023-12-28T06:26:15;3.93;;;2.90;;
17852;SDS011;9052;53.494;14.376;2023-12-28T06:28:42;1.57;;;1.43;;
17852;SDS011;9052;53.494;14.376;2023-12-28T06:31:09;3.80;;;1.00;;
17852;SDS011;9052;53.494;14.376;2023-12-28T06:33:36;8.83;;;1.30;;
17852;SDS011;9052;53.494;14.376;2023-12-28T06:36:07;1.87;;;1.30;;
17852;SDS011;9052;53.494;14.376;2023-12-28T06:38:34;2.53;;;2.03;;
17852;SDS011;9052;53.494;14.376;2023-12-28T06:41:09;2.77;;;1.20;;
17852;SDS011;9052;53.494;14.376;2023-12-28T06:43:36;1.53;;;1.40;;
17852;SDS011;9052;53.494;14.376;2023-12-28T06:46:04;1.10;;;1.00;;
17852;SDS011;9052;53.494;14.376;2023-12-28T06:48:30;2.03;;;1.30;;
17852;SDS011;9052;53.494;14.376;2023-12-28T06:50:57;3.17;;;1.07;;
17852;SDS011;9052;53.494;14.376;2023-12-28T06:53:25;1.83;;;1.30;;
17852;SDS011;9052;53.494;14.376;2023-12-28T06:55:52;2.87;;;1.17;;
17852;SDS011;9052;53.494;14.376;2023-12-28T06:58:20;1.47;;;1.37;;
17852;SDS011;9052;53.494;14.376;2023-12-28T07:00:47;18.93;;;2.03;;
17852;SDS011;9052;53.494;14.376;2023-12-28T07:03:14;1.70;;;1.00;;
17852;SDS011;9052;53.494;14.376;2023-12-28T07:05:41;2.00;;;1.00;;
17852;SDS011;9052;53.494;14.376;2023-12-28T07:08:08;1.63;;;1.53;;
17852;SDS011;9052;53.494;14.376;2023-12-28T07:10:34;1.53;;;1.43;;
17852;SDS011;9052;53.494;14.376;2023-12-28T07:13:02;2.90;;;1.57;;
17852;SDS011;9052;53.494;14.376;2023-12-28T07:15:30;1.47;;;1.30;;
17852;SDS011;9052;53.494;14.376;2023-12-28T07:17:57;1.50;;;1.40;;
17852;SDS011;9052;53.494;14.376;2023-12-28T07:20:24;2.70;;;1.37;;
17852;SDS011;9052;53.494;14.376;2023-12-28T07:22:51;1.00;;;1.00;;
17852;SDS011;9052;53.494;14.376;2023-12-28T07:25:18;3.50;;;1.40;;
17852;SDS011;9052;53.494;14.376;2023-12-28T07:27:45;3.43;;;1.30;;
17852;SDS011;9052;53.494;14.376;2023-12-28T07:30:12;1.20;;;1.20;;
17852;SDS011;9052;53.494;14.376;2023-12-28T07:32:43;2.47;;;2.20;;
17852;SDS011;9052;53.494;14.376;2023-12-28T07:35:10;3.93;;;1.73;;
17852;SDS011;9052;53.494;14.376;2023-12-28T07:37:37;2.10;;;1.37;;
17852;SDS011;9052;53.494;14.376;2023-12-28T07:40:04;2.90;;;1.60;;
17852;SDS011;9052;53.494;14.376;2023-12-28T07:42:32;2.83;;;2.00;;
17852;SDS011;9052;53.494;14.376;2023-12-28T07:44:59;2.50;;;1.30;;
17852;SDS011;9052;53.494;14.376;2023-12-28T07:47:26;2.13;;;1.23;;
17852;SDS011;9052;53.494;14.376;2023-12-28T07:49:54;0.90;;;0.90;;
17852;SDS011;9052;53.494;14.376;2023-12-28T08:19:09;8.37;;;1.83;;
17852;SDS011;9052;53.494;14.376;2023-12-28T08:21:37;6.20;;;2.57;;
17852;SDS011;9052;53.494;14.376;2023-12-28T08:42:24;1.50;;;1.40;;
17852;SDS011;9052;53.494;14.376;2023-12-28T08:44:51;2.80;;;1.60;;
17852;SDS011;9052;53.494;14.376;2023-12-28T08:47:20;1.63;;;1.20;;
17852;SDS011;9052;53.494;14.376;2023-12-28T08:49:47;1.90;;;1.33;;
17852;SDS011;9052;53.494;14.376;2023-12-28T08:52:14;1.53;;;1.17;;
17852;SDS011;9052;53.494;14.376;2023-12-28T08:54:41;4.77;;;1.43;;
17852;SDS011;9052;53.494;14.376;2023-12-28T08:57:08;7.80;;;2.17;;
17852;SDS011;9052;53.494;14.376;2023-12-28T08:59:37;5.30;;;1.23;;
17852;SDS011;9052;53.494;14.376;2023-12-28T09:02:04;2.30;;;1.63;;
17852;SDS011;9052;53.494;14.376;2023-12-28T09:04:31;1.73;;;1.40;;
17852;SDS011;9052;53.494;14.376;2023-12-28T09:06:58;1.63;;;1.03;;
17852;SDS011;9052;53.494;14.376;2023-12-28T09:09:26;2.23;;;1.33;;
17852;SDS011;9052;53.494;14.376;2023-12-28T09:11:53;5.27;;;1.87;;
17852;SDS011;9052;53.494;14.376;2023-12-28T09:14:20;1.63;;;1.10;;
17852;SDS011;9052;53.494;14.376;2023-12-28T09:16:48;3.67;;;1.57;;
17852;SDS011;9052;53.494;14.376;2023-12-28T09:19:15;32.63;;;2.17;;
17852;SDS011;9052;53.494;14.376;2023-12-28T09:21:42;4.27;;;2.30;;
17852;SDS011;9052;53.494;14.376;2023-12-28T09:24:09;1.70;;;1.60;;
17852;SDS011;9052;53.494;14.376;2023-12-28T09:26:37;1.43;;;1.33;;
17852;SDS011;9052;53.494;14.376;2023-12-28T09:29:04;3.27;;;1.53;;
17852;SDS011;9052;53.494;14.376;2023-12-28T09:31:31;1.30;;;1.20;;
17852;SDS011;9052;53.494;14.376;2023-12-28T09:34:00;2.63;;;1.50;;
17852;SDS011;9052;53.494;14.376;2023-12-28T09:36:30;1.23;;;1.13;;
17852;SDS011;9052;53.494;14.376;2023-12-28T09:38:57;1.63;;;1.00;;
17852;SDS011;9052;53.494;14.376;2023-12-28T09:41:25;2.60;;;1.37;;
17852;SDS011;9052;53.494;14.376;2023-12-28T09:43:54;3.47;;;1.40;;
17852;SDS011;9052;53.494;14.376;2023-12-28T09:46:21;2.90;;;1.40;;
17852;SDS011;9052;53.494;14.376;2023-12-28T09:48:48;1.77;;;1.30;;
17852;SDS011;9052;53.494;14.376;2023-12-28T09:51:17;0.70;;;0.70;;
17852;SDS011;9052;53.494;14.376;2023-12-28T09:53:45;1.23;;;1.00;;
17852;SDS011;9052;53.494;14.376;2023-12-28T09:56:24;4.50;;;2.03;;
17852;SDS011;9052;53.494;14.376;2023-12-28T09:58:51;2.40;;;1.57;;
17852;SDS011;9052;53.494;14.376;2023-12-28T10:01:18;2.73;;;1.53;;
17852;SDS011;9052;53.494;14.376;2023-12-28T10:03:45;2.20;;;1.20;;
17852;SDS011;9052;53.494;14.376;2023-12-28T10:06:12;2.83;;;1.30;;
17852;SDS011;9052;53.494;14.376;2023-12-28T10:08:46;2.00;;;1.73;;
17852;SDS011;9052;53.494;14.376;2023-12-28T10:14:17;3.63;;;1.53;;
17852;SDS011;9052;53.494;14.376;2023-12-28T10:16:44;1.67;;;1.20;;
17852;SDS011;9052;53.494;14.376;2023-12-28T10:19:11;1.33;;;1.03;;
17852;SDS011;9052;53.494;14.376;2023-12-28T10:21:40;1.70;;;1.30;;
17852;SDS011;9052;53.494;14.376;2023-12-28T10:24:11;1.93;;;1.60;;
17852;SDS011;9052;53.494;14.376;2023-12-28T10:26:38;1.20;;;1.10;;
17852;SDS011;9052;53.494;14.376;2023-12-28T10:29:05;1.63;;;1.50;;
17852;SDS011;9052;53.494;14.376;2023-12-28T10:31:32;1.63;;;1.23;;
17852;SDS011;9052;53.494;14.376;2023-12-28T10:34:00;1.00;;;1.00;;
17852;SDS011;9052;53.494;14.376;2023-12-28T10:36:27;5.60;;;1.97;;
17852;SDS011;9052;53.494;14.376;2023-12-28T10:38:54;1.63;;;1.13;;
17852;SDS011;9052;53.494;14.376;2023-12-28T10:41:24;1.70;;;1.60;;
17852;SDS011;9052;53.494;14.376;2023-12-28T10:43:53;9.70;;;1.60;;
17852;SDS011;9052;53.494;14.376;2023-12-28T10:46:25;1.80;;;1.33;;
17852;SDS011;9052;53.494;14.376;2023-12-28T10:48:53;1.20;;;1.10;;
17852;SDS011;9052;53.494;14.376;2023-12-28T10:51:24;5.10;;;1.60;;
17852;SDS011;9052;53.494;14.376;2023-12-28T10:53:54;2.73;;;1.47;;
17852;SDS011;9052;53.494;14.376;2023-12-28T10:56:28;2.90;;;1.80;;
17852;SDS011;9052;53.494;14.376;2023-12-28T10:59:01;1.70;;;1.43;;
17852;SDS011;9052;53.494;14.376;2023-12-28T11:01:32;2.70;;;1.30;;
17852;SDS011;9052;53.494;14.376;2023-12-28T11:04:03;8.20;;;1.93;;
17852;SDS011;9052;53.494;14.376;2023-12-28T11:06:35;1.63;;;1.53;;
17852;SDS011;9052;53.494;14.376;2023-12-28T11:09:03;9.63;;;2.40;;
17852;SDS011;9052;53.494;14.376;2023-12-28T11:11:33;1.47;;;1.07;;
17852;SDS011;9052;53.494;14.376;2023-12-28T11:14:00;2.80;;;1.50;;
17852;SDS011;9052;53.494;14.376;2023-12-28T11:16:27;6.87;;;1.33;;
17852;SDS011;9052;53.494;14.376;2023-12-28T11:18:56;2.70;;;1.13;;
17852;SDS011;9052;53.494;14.376;2023-12-28T11:21:23;2.60;;;1.83;;
17852;SDS011;9052;53.494;14.376;2023-12-28T11:23:50;1.80;;;1.57;;
17852;SDS011;9052;53.494;14.376;2023-12-28T11:26:17;1.50;;;1.30;;
17852;SDS011;9052;53.494;14.376;2023-12-28T11:28:46;2.87;;;1.37;;
17852;SDS011;9052;53.494;14.376;2023-12-28T11:31:13;1.00;;;0.90;;
17852;SDS011;9052;53.494;14.376;2023-12-28T11:33:44;1.53;;;1.20;;
17852;SDS011;9052;53.494;14.376;2023-12-28T11:36:19;5.77;;;1.47;;
17852;SDS011;9052;53.494;14.376;2023-12-28T11:38:50;3.53;;;1.23;;
17852;SDS011;9052;53.494;14.376;2023-12-28T11:41:19;1.83;;;1.40;;
17852;SDS011;9052;53.494;14.376;2023-12-28T11:43:52;1.73;;;1.20;;
17852;SDS011;9052;53.494;14.376;2023-12-28T11:46:21;3.30;;;1.37;;
17852;SDS011;9052;53.494;14.376;2023-12-28T11:48:50;1.23;;;1.10;;
17852;SDS011;9052;53.494;14.376;2023-12-28T11:51:17;1.47;;;0.90;;
17852;SDS011;9052;53.494;14.376;2023-12-28T11:53:44;6.67;;;1.30;;
17852;SDS011;9052;53.494;14.376;2023-12-28T11:56:15;3.17;;;1.37;;
17852;SDS011;9052;53.494;14.376;2023-12-28T11:58:44;3.43;;;1.73;;
17852;SDS011;9052;53.494;14.376;2023-12-28T12:01:15;2.50;;;1.80;;
17852;SDS011;9052;53.494;14.376;2023-12-28T12:03:42;1.67;;;1.57;;
17852;SDS011;9052;53.494;14.376;2023-12-28T12:06:09;6.53;;;1.53;;
17852;SDS011;9052;53.494;14.376;2023-12-28T12:08:36;3.90;;;1.17;;
17852;SDS011;9052;53.494;14.376;2023-12-28T12:11:04;1.57;;;1.07;;
17852;SDS011;9052;53.494;14.376;2023-12-28T12:13:32;3.47;;;1.33;;
17852;SDS011;9052;53.494;14.376;2023-12-28T12:15:59;1.57;;;0.97;;
17852;SDS011;9052;53.494;14.376;2023-12-28T12:18:32;1.20;;;1.10;;
17852;SDS011;9052;53.494;14.376;2023-12-28T12:20:59;3.10;;;1.10;;
17852;SDS011;9052;53.494;14.376;2023-12-28T12:23:26;3.63;;;1.00;;
17852;SDS011;9052;53.494;14.376;2023-12-28T12:25:53;1.47;;;0.90;;
17852;SDS011;9052;53.494;14.376;2023-12-28T12:28:20;10.63;;;1.33;;
17852;SDS011;9052;53.494;14.376;2023-12-28T12:30:50;3.93;;;1.17;;
17852;SDS011;9052;53.494;14.376;2023-12-28T12:33:19;2.13;;;1.80;;
17852;SDS011;9052;53.494;14.376;2023-12-28T12:35:48;2.73;;;1.93;;
17852;SDS011;9052;53.494;14.376;2023-12-28T12:38:15;4.53;;;1.30;;
17852;SDS011;9052;53.494;14.376;2023-12-28T12:40:43;3.43;;;1.47;;
17852;SDS011;9052;53.494;14.376;2023-12-28T12:43:10;4.70;;;1.63;;
17852;SDS011;9052;53.494;14.376;2023-12-28T12:45:37;2.67;;;1.00;;
17852;SDS011;9052;53.494;14.376;2023-12-28T12:48:04;1.83;;;1.23;;
17852;SDS011;9052;53.494;14.376;2023-12-28T12:50:32;4.27;;;2.00;;
17852;SDS011;9052;53.494;14.376;2023-12-28T12:53:01;6.10;;;1.70;;
17852;SDS011;9052;53.494;14.376;2023-12-28T12:55:28;3.43;;;1.50;;
17852;SDS011;9052;53.494;14.376;2023-12-28T12:57:56;3.80;;;1.67;;
17852;SDS011;9052;53.494;14.376;2023-12-28T13:00:24;1.93;;;1.83;;
17852;SDS011;9052;53.494;14.376;2023-12-28T13:02:51;2.40;;;1.10;;
17852;SDS011;9052;53.494;14.376;2023-12-28T13:05:18;6.37;;;4.23;;
17852;SDS011;9052;53.494;14.376;2023-12-28T13:07:45;13.33;;;3.10;;
17852;SDS011;9052;53.494;14.376;2023-12-28T13:10:14;6.40;;;2.30;;
17852;SDS011;9052;53.494;14.376;2023-12-28T13:12:41;2.20;;;2.03;;
17852;SDS011;9052;53.494;14.376;2023-12-28T13:15:08;3.43;;;2.43;;
17852;SDS011;9052;53.494;14.376;2023-12-28T13:17:35;6.47;;;1.30;;
17852;SDS011;9052;53.494;14.376;2023-12-28T13:20:03;8.63;;;2.03;;
17852;SDS011;9052;53.494;14.376;2023-12-28T13:22:31;5.33;;;1.30;;
17852;SDS011;9052;53.494;14.376;2023-12-28T13:24:59;10.03;;;2.10;;
17852;SDS011;9052;53.494;14.376;2023-12-28T13:27:28;2.80;;;1.53;;
17852;SDS011;9052;53.494;14.376;2023-12-28T13:29:56;2.07;;;1.57;;
17852;SDS011;9052;53.494;14.376;2023-12-28T13:32:23;2.20;;;2.00;;
17852;SDS011;9052;53.494;14.376;2023-12-28T13:34:50;6.23;;;2.33;;
17852;SDS011;9052;53.494;14.376;2023-12-28T13:37:17;19.03;;;9.80;;
17852;SDS011;9052;53.494;14.376;2023-12-28T13:39:44;6.23;;;2.53;;
17852;SDS011;9052;53.494;14.376;2023-12-28T13:42:12;23.50;;;10.30;;
17852;SDS011;9052;53.494;14.376;2023-12-28T13:44:40;8.50;;;3.83;;
17852;SDS011;9052;53.494;14.376;2023-12-28T13:47:08;4.90;;;2.73;;
17852;SDS011;9052;53.494;14.376;2023-12-28T13:49:35;9.00;;;4.10;;
17852;SDS011;9052;53.494;14.376;2023-12-28T13:52:03;3.80;;;1.67;;
17852;SDS011;9052;53.494;14.376;2023-12-28T13:54:30;3.03;;;2.37;;
17852;SDS011;9052;53.494;14.376;2023-12-28T13:56:57;3.60;;;1.83;;
17852;SDS011;9052;53.494;14.376;2023-12-28T13:59:25;4.40;;;1.50;;
17852;SDS011;9052;53.494;14.376;2023-12-28T14:01:54;2.70;;;2.20;;
17852;SDS011;9052;53.494;14.376;2023-12-28T14:04:21;4.23;;;1.47;;
17852;SDS011;9052;53.494;14.376;2023-12-28T14:06:48;2.93;;;1.73;;
17852;SDS011;9052;53.494;14.376;2023-12-28T14:09:15;1.40;;;1.30;;
17852;SDS011;9052;53.494;14.376;2023-12-28T14:11:45;3.13;;;1.70;;
17852;SDS011;9052;53.494;14.376;2023-12-28T14:14:12;3.30;;;2.30;;
17852;SDS011;9052;53.494;14.376;2023-12-28T14:16:39;2.67;;;2.00;;
17852;SDS011;9052;53.494;14.376;2023-12-28T14:19:08;2.80;;;1.30;;
17852;SDS011;9052;53.494;14.376;2023-12-28T14:21:36;2.97;;;2.63;;
17852;SDS011;9052;53.494;14.376;2023-12-28T14:24:03;4.17;;;1.70;;
17852;SDS011;9052;53.494;14.376;2023-12-28T14:26:31;5.37;;;2.40;;
17852;SDS011;9052;53.494;14.376;2023-12-28T14:28:59;9.47;;;4.53;;
17852;SDS011;9052;53.494;14.376;2023-12-28T14:31:28;4.73;;;4.07;;
17852;SDS011;9052;53.494;14.376;2023-12-28T14:33:56;2.90;;;2.60;;
17852;SDS011;9052;53.494;14.376;2023-12-28T14:36:27;8.83;;;2.63;;
17852;SDS011;9052;53.494;14.376;2023-12-28T14:38:58;3.83;;;3.53;;
17852;SDS011;9052;53.494;14.376;2023-12-28T14:41:25;3.87;;;2.23;;
17852;SDS011;9052;53.494;14.376;2023-12-28T14:43:52;19.13;;;2.83;;
17852;SDS011;9052;53.494;14.376;2023-12-28T14:46:19;4.43;;;1.63;;
17852;SDS011;9052;53.494;14.376;2023-12-28T14:48:46;6.03;;;1.47;;
17852;SDS011;9052;53.494;14.376;2023-12-28T14:51:13;4.90;;;1.70;;
17852;SDS011;9052;53.494;14.376;2023-12-28T14:53:41;4.43;;;1.70;;
17852;SDS011;9052;53.494;14.376;2023-12-28T14:56:08;5.77;;;1.53;;
17852;SDS011;9052;53.494;14.376;2023-12-28T14:58:35;5.77;;;1.93;;
17852;SDS011;9052;53.494;14.376;2023-12-28T15:01:02;2.73;;;1.97;;
17852;SDS011;9052;53.494;14.376;2023-12-28T15:03:29;8.40;;;2.67;;
17852;SDS011;9052;53.494;14.376;2023-12-28T15:05:56;3.33;;;2.10;;
17852;SDS011;9052;53.494;14.376;2023-12-28T15:08:24;4.37;;;2.33;;
17852;SDS011;9052;53.494;14.376;2023-12-28T15:10:53;5.73;;;1.90;;
17852;SDS011;9052;53.494;14.376;2023-12-28T15:13:21;1.80;;;1.57;;
17852;SDS011;9052;53.494;14.376;2023-12-28T15:15:48;4.70;;;2.53;;
17852;SDS011;9052;53.494;14.376;2023-12-28T15:18:16;2.90;;;2.10;;
17852;SDS011;9052;53.494;14.376;2023-12-28T15:20:43;6.23;;;2.00;;
17852;SDS011;9052;53.494;14.376;2023-12-28T15:23:11;2.30;;;1.63;;
17852;SDS011;9052;53.494;14.376;2023-12-28T15:25:39;8.33;;;2.50;;
17852;SDS011;9052;53.494;14.376;2023-12-28T15:28:08;4.90;;;1.37;;
17852;SDS011;9052;53.494;14.376;2023-12-28T15:30:35;1.77;;;1.67;;
17852;SDS011;9052;53.494;14.376;2023-12-28T15:33:02;1.97;;;1.53;;
17852;SDS011;9052;53.494;14.376;2023-12-28T15:35:29;3.43;;;1.77;;
17852;SDS011;9052;53.494;14.376;2023-12-28T15:37:56;2.00;;;1.70;;